Terminal Aerodrome Forecast
Issued by NWS

Home | Current Version | Previous Version | Text Only | Print | Product List | Glossary On
Versions: 1 2 3 4 5 6 7 8 9 10 11 12 13 14 15 16 17
000
FTUS44 KSJT 040534
TAFSOA
TAF
KSOA 040534Z 0406/0506 04008KT 6SM -DZ BR OVC004
     FM040900 03007KT 3SM -DZ BR OVC008
     FM041500 02006KT 6SM -DZ BR OVC012=

USA.gov is the U.S. government's official web portal to all federal, state and local government web resources and services.